Time,TemperatureF,DewpointF,PressureIn,WindDirection,WindDirectionDegrees,WindSpeedMPH,WindSpeedGustMPH,Humidity,HourlyPrecipIn,Conditions,Clouds,dailyrainin,SolarRadiationWatts/m^2,SoftwareType,DateUTC
2013-02-20 00:01:00,32.8,32.5,29.52,ENE,65,0.0,0.0,99,0.04,,OVC004,0.15,0.00,VWS V14.01,2013-02-20 05:01:00,
2013-02-20 00:11:00,32.8,32.5,29.52,ENE,65,2.0,3.0,99,0.04,,OVC005,0.00,0.00,VWS V14.01,2013-02-20 05:11:00,
2013-02-20 00:21:00,32.9,32.7,29.51,ENE,65,0.0,2.0,99,0.03,,OVC005,0.00,0.00,VWS V14.01,2013-02-20 05:21:00,
2013-02-20 00:31:00,32.9,32.7,29.51,ENE,65,0.0,2.0,99,0.02,,OVC005,0.00,0.00,VWS V14.01,2013-02-20 05:31:00,
2013-02-20 00:41:00,32.8,32.5,29.51,ENE,65,0.0,0.0,99,0.01,,OVC004,0.00,0.00,VWS V14.01,2013-02-20 05:41:00,
2013-02-20 00:51:00,32.8,32.5,29.51,ENE,65,0.0,1.0,99,0.01,,OVC004,0.01,0.00,VWS V14.01,2013-02-20 05:51:00,
2013-02-20 01:01:00,32.8,32.5,29.50,ENE,65,0.0,0.0,99,0.01,,OVC004,0.01,0.00,VWS V14.01,2013-02-20 06:01:00,
2013-02-20 01:11:00,32.8,32.5,29.50,ENE,65,0.0,1.0,99,0.01,,OVC004,0.01,0.00,VWS V14.01,2013-02-20 06:11:00,
2013-02-20 01:21:00,32.7,32.5,29.49,ENE,65,0.0,0.0,99,0.02,,OVC004,0.02,0.00,VWS V14.01,2013-02-20 06:21:00,
2013-02-20 01:31:00,32.8,32.5,29.49,ENE,65,2.0,3.0,99,0.02,,OVC004,0.02,0.00,VWS V14.01,2013-02-20 06:31:00,
2013-02-20 01:41:00,32.7,32.5,29.49,ENE,65,0.0,3.0,99,0.02,,OVC016,0.02,0.00,VWS V14.01,2013-02-20 06:41:00,
2013-02-20 01:51:00,32.8,32.5,29.48,WSW,249,2.0,4.0,99,0.02,,OVC016,0.02,0.00,VWS V14.01,2013-02-20 06:51:00,
2013-02-20 02:01:00,32.9,32.9,29.47,WSW,249,1.0,3.0,100,0.01,,OVC016,0.02,0.00,VWS V14.01,2013-02-20 07:01:00,
2013-02-20 02:11:00,32.8,32.8,29.47,WSW,249,0.0,2.0,100,0.01,,OVC050,0.02,0.00,VWS V14.01,2013-02-20 07:11:00,
2013-02-20 02:21:00,32.8,32.8,29.46,WSW,249,0.0,1.0,100,0.01,,OVC050,0.02,0.00,VWS V14.01,2013-02-20 07:21:00,
2013-02-20 02:31:00,32.8,32.8,29.46,WSW,249,2.0,2.0,100,0.00,,OVC050,0.02,0.00,VWS V14.01,2013-02-20 07:31:00,
2013-02-20 02:41:00,32.7,32.7,29.46,WSW,249,0.0,5.0,100,0.00,,OVC055,0.02,0.00,VWS V14.01,2013-02-20 07:41:00,
2013-02-20 02:51:00,32.9,32.9,29.46,WSW,243,2.0,5.0,100,0.00,,OVC055,0.02,0.00,VWS V14.01,2013-02-20 07:51:00,
2013-02-20 03:11:00,33.1,33.1,29.46,WSW,251,5.0,16.0,100,0.00,,OVC049,0.02,0.00,VWS V14.01,2013-02-20 08:11:00,
2013-02-20 03:21:00,33.4,33.4,29.46,West,264,14.0,16.0,100,0.00,,OVC049,0.02,0.00,VWS V14.01,2013-02-20 08:21:00,
2013-02-20 03:31:00,33.4,33.4,29.46,West,271,17.0,27.0,100,0.01,,OVC049,0.03,0.00,VWS V14.01,2013-02-20 08:31:00,
2013-02-20 03:41:00,33.1,33.1,29.46,West,268,19.0,23.0,100,0.01,,OVC014,0.03,0.00,VWS V14.01,2013-02-20 08:41:00,
2013-02-20 03:51:00,32.9,32.9,29.46,WNW,287,13.0,20.0,100,0.01,,OVC014,0.03,0.00,VWS V14.01,2013-02-20 08:51:00,
2013-02-20 04:01:00,32.8,32.8,29.47,WNW,296,14.0,20.0,100,0.01,,OVC014,0.03,0.00,VWS V14.01,2013-02-20 09:01:00,
2013-02-20 04:11:00,32.8,32.8,29.47,West,280,8.0,17.0,100,0.01,,OVC015,0.03,0.00,VWS V14.01,2013-02-20 09:11:00,
2013-02-20 04:21:00,32.8,32.5,29.47,NW,306,13.0,13.0,99,0.01,,OVC015,0.03,0.00,VWS V14.01,2013-02-20 09:21:00,
2013-02-20 04:31:00,32.5,32.2,29.48,West,269,11.0,17.0,99,0.01,,OVC015,0.03,0.00,VWS V14.01,2013-02-20 09:31:00,
2013-02-20 04:41:00,32.2,31.7,29.48,WNW,298,9.0,19.0,98,0.00,,OVC060,0.03,0.00,VWS V14.01,2013-02-20 09:41:00,
2013-02-20 04:51:00,32.2,31.7,29.48,WNW,296,7.0,12.0,98,0.00,,OVC060,0.03,0.00,VWS V14.01,2013-02-20 09:51:00,
2013-02-20 05:01:00,32.1,31.1,29.49,NW,311,16.0,16.0,96,0.00,,OVC060,0.03,0.00,VWS V14.01,2013-02-20 10:01:00,
2013-02-20 05:11:00,31.3,30.0,29.49,West,267,7.0,16.0,95,0.00,,OVC060,0.03,0.00,VWS V14.01,2013-02-20 10:11:00,
2013-02-20 05:21:00,30.9,29.1,29.50,WNW,291,10.0,18.0,93,0.00,,OVC060,0.03,0.00,VWS V14.01,2013-02-20 10:21:00,
2013-02-20 05:31:00,30.7,28.7,29.50,WNW,290,10.0,15.0,92,0.00,,OVC060,0.03,0.00,VWS V14.01,2013-02-20 10:31:00,
2013-02-20 05:41:00,30.9,28.0,29.50,West,279,23.0,23.0,89,0.00,,OVC022,0.03,0.00,VWS V14.01,2013-02-20 10:41:00,
2013-02-20 05:51:00,31.0,27.0,29.51,West,269,13.0,26.0,85,0.00,,OVC022,0.03,0.00,VWS V14.01,2013-02-20 10:51:00,
2013-02-20 06:01:00,30.9,26.4,29.51,NW,309,11.0,21.0,83,0.00,,OVC022,0.03,0.00,VWS V14.01,2013-02-20 11:01:00,
2013-02-20 06:11:00,30.7,25.9,29.51,NW,323,9.0,14.0,82,0.00,,OVC021,0.03,0.00,VWS V14.01,2013-02-20 11:11:00,
2013-02-20 06:21:00,30.4,25.6,29.51,WNW,283,6.0,17.0,82,0.00,,OVC021,0.03,0.00,VWS V14.01,2013-02-20 11:21:00,
2013-02-20 06:31:00,30.1,25.0,29.52,WSW,252,8.0,14.0,81,0.00,,OVC021,0.03,0.00,VWS V14.01,2013-02-20 11:31:00,
2013-02-20 06:41:00,30.0,24.6,29.52,WNW,300,8.0,16.0,80,0.00,,OVC030,0.03,0.00,VWS V14.01,2013-02-20 11:41:00,
2013-02-20 06:51:00,30.0,24.6,29.52,West,260,11.0,14.0,80,0.00,,OVC030,0.03,5.00,VWS V14.01,2013-02-20 11:51:00,
2013-02-20 07:11:00,29.5,23.5,29.52,WNW,298,10.0,22.0,78,0.00,,OVC030,0.03,12.00,VWS V14.01,2013-02-20 12:11:00,
2013-02-20 07:21:00,29.5,23.2,29.53,West,262,9.0,15.0,77,0.00,,OVC030,0.03,12.00,VWS V14.01,2013-02-20 12:21:00,
2013-02-20 07:31:00,29.4,23.1,29.53,NW,307,6.0,20.0,77,0.00,,OVC030,0.03,18.00,VWS V14.01,2013-02-20 12:31:00,
2013-02-20 07:41:00,29.4,22.8,29.53,NW,310,4.0,17.0,76,0.00,,OVC025,0.03,23.00,VWS V14.01,2013-02-20 12:41:00,
2013-02-20 07:51:00,29.4,22.8,29.53,WNW,282,16.0,21.0,76,0.00,,OVC025,0.03,28.00,VWS V14.01,2013-02-20 12:51:00,
2013-02-20 08:01:00,29.3,22.7,29.53,WSW,254,12.0,19.0,76,0.00,,OVC025,0.03,25.00,VWS V14.01,2013-02-20 13:01:00,
2013-02-20 08:11:00,29.3,23.0,29.53,West,274,12.0,20.0,77,0.00,,OVC025,0.03,35.00,VWS V14.01,2013-02-20 13:11:00,
2013-02-20 08:21:00,29.1,22.2,29.54,West,262,11.0,19.0,75,0.00,,OVC025,0.03,33.00,VWS V14.01,2013-02-20 13:21:00,
2013-02-20 08:31:00,29.4,22.5,29.54,WSW,255,5.0,22.0,75,0.00,,OVC025,0.03,77.00,VWS V14.01,2013-02-20 13:31:00,
2013-02-20 08:41:00,29.5,22.6,29.54,SW,224,7.0,17.0,75,0.00,,OVC025,0.03,63.00,VWS V14.01,2013-02-20 13:41:00,
2013-02-20 08:51:00,29.5,22.6,29.54,WNW,283,13.0,18.0,75,0.00,,OVC025,0.03,56.00,VWS V14.01,2013-02-20 13:51:00,
2013-02-20 09:01:00,29.5,22.6,29.54,West,263,9.0,19.0,75,0.00,,OVC025,0.03,81.00,VWS V14.01,2013-02-20 14:01:00,
2013-02-20 09:11:00,29.5,22.6,29.54,WSW,243,14.0,20.0,75,0.00,,OVC040,0.03,93.00,VWS V14.01,2013-02-20 14:11:00,
2013-02-20 09:21:00,29.5,21.9,29.54,West,271,12.0,20.0,73,0.00,,OVC040,0.03,111.00,VWS V14.01,2013-02-20 14:21:00,
2013-02-20 09:31:00,29.5,21.9,29.55,WSW,255,9.0,25.0,73,0.00,,OVC040,0.03,65.00,VWS V14.01,2013-02-20 14:31:00,
2013-02-20 09:41:00,29.4,21.5,29.55,West,276,13.0,20.0,72,0.00,,OVC038,0.03,70.00,VWS V14.01,2013-02-20 14:41:00,
2013-02-20 09:51:00,29.4,21.5,29.55,WNW,285,9.0,21.0,72,0.00,,OVC038,0.03,86.00,VWS V14.01,2013-02-20 14:51:00,
2013-02-20 10:01:00,29.4,21.2,29.56,West,281,18.0,24.0,71,0.00,,OVC038,0.03,93.00,VWS V14.01,2013-02-20 15:01:00,
2013-02-20 10:11:00,29.4,20.8,29.56,WNW,295,13.0,21.0,70,0.00,,OVC035,0.03,105.00,VWS V14.01,2013-02-20 15:11:00,
2013-02-20 10:21:00,29.5,21.3,29.56,West,278,9.0,20.0,71,0.00,,OVC035,0.03,104.00,VWS V14.01,2013-02-20 15:21:00,
2013-02-20 10:31:00,29.5,21.3,29.57,West,272,14.0,18.0,71,0.00,,OVC035,0.03,121.00,VWS V14.01,2013-02-20 15:31:00,
2013-02-20 10:41:00,29.8,21.2,29.57,West,281,17.0,20.0,70,0.00,,OVC033,0.03,139.00,VWS V14.01,2013-02-20 15:41:00,
2013-02-20 10:51:00,29.8,20.9,29.57,West,274,12.0,20.0,69,0.00,,OVC033,0.03,160.00,VWS V14.01,2013-02-20 15:51:00,
2013-02-20 11:01:00,30.3,20.7,29.56,NW,311,11.0,19.0,67,0.00,,OVC033,0.03,186.00,VWS V14.01,2013-02-20 16:01:00,
2013-02-20 11:11:00,30.6,20.2,29.56,WSW,252,13.0,22.0,65,0.00,,OVC042,0.03,232.00,VWS V14.01,2013-02-20 16:11:00,
2013-02-20 11:21:00,31.0,19.9,29.56,West,281,14.0,20.0,63,0.00,,OVC042,0.03,195.00,VWS V14.01,2013-02-20 16:21:00,
2013-02-20 11:31:00,30.9,19.4,29.56,West,272,14.0,26.0,62,0.00,,OVC042,0.03,169.00,VWS V14.01,2013-02-20 16:31:00,
2013-02-20 11:41:00,30.7,19.6,29.56,WSW,254,20.0,27.0,63,0.00,,OVC048,0.03,144.00,VWS V14.01,2013-02-20 16:41:00,
2013-02-20 11:51:00,30.6,19.5,29.56,West,280,17.0,21.0,63,0.00,,OVC048,0.03,167.00,VWS V14.01,2013-02-20 16:51:00,
2013-02-20 12:01:00,30.6,19.1,29.56,WSW,253,16.0,27.0,62,0.00,,OVC048,0.03,221.00,VWS V14.01,2013-02-20 17:01:00,
2013-02-20 12:11:00,30.6,18.8,29.56,West,276,13.0,26.0,61,0.00,,OVC050,0.03,237.00,VWS V14.01,2013-02-20 17:11:00,
2013-02-20 12:21:00,30.7,18.5,29.56,West,269,18.0,28.0,60,0.00,,OVC050,0.03,223.00,VWS V14.01,2013-02-20 17:21:00,
2013-02-20 12:31:00,30.7,18.5,29.55,WNW,283,15.0,25.0,60,0.00,,OVC050,0.03,227.00,VWS V14.01,2013-02-20 17:31:00,
2013-02-20 12:41:00,30.6,17.2,29.55,West,263,15.0,26.0,57,0.00,,OVC050,0.03,193.00,VWS V14.01,2013-02-20 17:41:00,
2013-02-20 12:51:00,30.6,17.6,29.55,WNW,287,17.0,23.0,58,0.00,,OVC050,0.03,206.00,VWS V14.01,2013-02-20 17:51:00,
2013-02-20 13:01:00,30.7,17.3,29.55,West,266,24.0,27.0,57,0.00,,OVC050,0.03,178.00,VWS V14.01,2013-02-20 18:01:00,
2013-02-20 13:11:00,30.6,18.0,29.55,WNW,283,16.0,24.0,59,0.00,,OVC050,0.03,188.00,VWS V14.01,2013-02-20 18:11:00,
2013-02-20 13:21:00,30.4,17.0,29.55,WSW,238,17.0,25.0,57,0.00,,OVC050,0.03,176.00,VWS V14.01,2013-02-20 18:21:00,
2013-02-20 13:31:00,30.4,17.8,29.55,WNW,293,16.0,23.0,59,0.00,,OVC050,0.03,158.00,VWS V14.01,2013-02-20 18:31:00,
2013-02-20 13:41:00,30.3,16.5,29.55,West,276,13.0,24.0,56,0.00,,OVC048,0.03,206.00,VWS V14.01,2013-02-20 18:41:00,
2013-02-20 13:51:00,30.4,16.2,29.55,West,276,20.0,24.0,55,0.00,,OVC048,0.03,167.00,VWS V14.01,2013-02-20 18:51:00,
2013-02-20 14:01:00,30.4,16.2,29.55,WNW,289,15.0,23.0,55,0.00,,OVC048,0.03,185.00,VWS V14.01,2013-02-20 19:01:00,
2013-02-20 14:11:00,30.3,16.5,29.55,West,278,14.0,28.0,56,0.00,,OVC048,0.03,155.00,VWS V14.01,2013-02-20 19:11:00,
2013-02-20 14:21:00,30.4,16.6,29.55,West,270,15.0,20.0,56,0.00,,OVC048,0.03,155.00,VWS V14.01,2013-02-20 19:21:00,
2013-02-20 14:31:00,30.3,16.5,29.55,WSW,252,18.0,23.0,56,0.00,,OVC048,0.03,121.00,VWS V14.01,2013-02-20 19:31:00,
2013-02-20 14:41:00,30.0,17.4,29.55,West,264,20.0,24.0,59,0.00,,OVC048,0.03,137.00,VWS V14.01,2013-02-20 19:41:00,
2013-02-20 14:51:00,30.1,16.7,29.55,West,281,18.0,25.0,57,0.00,,OVC048,0.03,139.00,VWS V14.01,2013-02-20 19:51:00,
2013-02-20 15:01:00,30.4,18.2,29.55,WNW,302,8.0,18.0,60,0.00,,OVC048,0.03,216.00,VWS V14.01,2013-02-20 20:01:00,
2013-02-20 15:11:00,30.9,18.3,29.55,WNW,283,19.0,23.0,59,0.00,,OVC048,0.03,385.00,VWS V14.01,2013-02-20 20:11:00,
2013-02-20 15:21:00,31.0,18.4,29.56,West,268,19.0,22.0,59,0.00,,OVC048,0.03,320.00,VWS V14.01,2013-02-20 20:21:00,
2013-02-20 15:31:00,31.3,19.4,29.56,West,276,18.0,25.0,61,0.00,,OVC048,0.03,397.00,VWS V14.01,2013-02-20 20:31:00,
2013-02-20 15:41:00,30.3,18.5,29.56,West,271,17.0,24.0,61,0.00,,OVC048,0.03,121.00,VWS V14.01,2013-02-20 20:41:00,
2013-02-20 15:51:00,29.4,18.4,29.57,West,263,25.0,25.0,63,0.00,,OVC048,0.03,111.00,VWS V14.01,2013-02-20 20:51:00,
2013-02-20 16:01:00,29.1,18.5,29.57,WNW,294,16.0,25.0,64,0.00,,OVC048,0.03,88.00,VWS V14.01,2013-02-20 21:01:00,
2013-02-20 16:11:00,28.8,17.4,29.57,WSW,244,23.0,23.0,62,0.00,,OVC048,0.03,67.00,VWS V14.01,2013-02-20 21:11:00,
2013-02-20 16:21:00,28.5,17.5,29.58,West,274,11.0,23.0,63,0.00,,OVC048,0.03,42.00,VWS V14.01,2013-02-20 21:21:00,
2013-02-20 16:31:00,28.5,17.5,29.58,West,262,11.0,21.0,63,0.00,,OVC048,0.03,35.00,VWS V14.01,2013-02-20 21:31:00,
2013-02-20 16:41:00,28.4,17.1,29.58,WSW,237,14.0,19.0,62,0.00,,OVC090,0.03,28.00,VWS V14.01,2013-02-20 21:41:00,
2013-02-20 16:51:00,28.1,16.4,29.58,West,261,19.0,29.0,61,0.00,,OVC090,0.03,16.00,VWS V14.01,2013-02-20 21:51:00,
2013-02-20 17:01:00,27.8,15.7,29.59,West,279,18.0,27.0,60,0.00,,OVC090,0.03,11.00,VWS V14.01,2013-02-20 22:01:00,
2013-02-20 17:11:00,27.6,15.6,29.59,West,266,13.0,26.0,60,0.00,,OVC090,0.03,0.00,VWS V14.01,2013-02-20 22:11:00,
2013-02-20 17:21:00,27.3,15.6,29.60,WSW,258,22.0,25.0,61,0.00,,OVC090,0.03,0.00,VWS V14.01,2013-02-20 22:21:00,
2013-02-20 17:31:00,27.0,15.7,29.60,West,269,17.0,25.0,62,0.00,,OVC090,0.03,0.00,VWS V14.01,2013-02-20 22:31:00,
2013-02-20 17:41:00,26.9,16.0,29.60,West,271,17.0,23.0,63,0.00,,OVC065,0.03,0.00,VWS V14.01,2013-02-20 22:41:00,
2013-02-20 17:51:00,26.6,15.0,29.60,West,278,16.0,22.0,61,0.00,,OVC065,0.03,0.00,VWS V14.01,2013-02-20 22:51:00,
2013-02-20 18:01:00,26.4,14.8,29.61,West,263,12.0,20.0,61,0.00,,OVC065,0.03,0.00,VWS V14.01,2013-02-20 23:01:00,
2013-02-20 18:11:00,26.3,15.1,29.61,WSW,257,11.0,17.0,62,0.00,,OVC085,0.03,0.00,VWS V14.01,2013-02-20 23:11:00,
2013-02-20 18:21:00,26.1,14.1,29.62,WSW,241,11.0,18.0,60,0.00,,OVC085,0.03,0.00,VWS V14.01,2013-02-20 23:21:00,
2013-02-20 18:31:00,26.0,14.0,29.62,West,261,14.0,15.0,60,0.00,,OVC085,0.03,0.00,VWS V14.01,2013-02-20 23:31:00,
2013-02-20 18:41:00,25.8,13.9,29.62,West,260,6.0,16.0,60,0.00,,OVC110,0.03,0.00,VWS V14.01,2013-02-20 23:41:00,
2013-02-20 18:51:00,25.8,13.5,29.62,West,266,11.0,22.0,59,0.00,,OVC110,0.03,0.00,VWS V14.01,2013-02-20 23:51:00,
2013-02-20 19:01:00,25.7,12.6,29.63,WSW,257,12.0,21.0,57,0.00,,OVC110,0.03,0.00,VWS V14.01,2013-02-21 00:01:00,
2013-02-20 19:11:00,25.4,13.1,29.63,WNW,283,12.0,21.0,59,0.00,,BKN110,0.03,0.00,VWS V14.01,2013-02-21 00:11:00,
2013-02-20 19:21:00,25.3,13.0,29.63,West,266,10.0,18.0,59,0.00,,BKN110,0.03,0.00,VWS V14.01,2013-02-21 00:21:00,
2013-02-20 19:31:00,25.1,12.4,29.63,West,265,12.0,21.0,58,0.00,,BKN110,0.03,0.00,VWS V14.01,2013-02-21 00:31:00,
2013-02-20 19:41:00,24.8,12.5,29.63,West,269,16.0,21.0,59,0.00,,CLR,0.03,0.00,VWS V14.01,2013-02-21 00:41:00,
2013-02-20 19:51:00,24.7,12.4,29.63,West,266,14.0,18.0,59,0.00,,CLR,0.03,0.00,VWS V14.01,2013-02-21 00:51:00,
2013-02-20 20:01:00,24.8,12.5,29.63,West,266,5.0,16.0,59,0.00,,CLR,0.03,0.00,VWS V14.01,2013-02-21 01:01:00,
2013-02-20 20:11:00,24.7,12.4,29.63,West,278,12.0,14.0,59,0.00,,CLR,0.03,0.00,VWS V14.01,2013-02-21 01:11:00,
2013-02-20 20:21:00,24.8,12.5,29.64,West,268,13.0,21.0,59,0.00,,CLR,0.03,0.00,VWS V14.01,2013-02-21 01:21:00,
2013-02-20 20:31:00,24.7,12.4,29.65,West,281,13.0,19.0,59,0.00,,CLR,0.03,0.00,VWS V14.01,2013-02-21 01:31:00,
2013-02-20 20:41:00,24.7,12.8,29.65,West,273,12.0,18.0,60,0.00,,CLR,0.03,0.00,VWS V14.01,2013-02-21 01:41:00,
2013-02-20 20:51:00,24.4,13.3,29.65,WNW,293,9.0,16.0,62,0.00,,CLR,0.03,0.00,VWS V14.01,2013-02-21 01:51:00,
2013-02-20 21:01:00,24.2,12.7,29.65,West,271,9.0,14.0,61,0.00,,CLR,0.03,0.00,VWS V14.01,2013-02-21 02:01:00,
2013-02-20 21:11:00,24.1,12.6,29.65,WSW,252,5.0,12.0,61,0.00,,CLR,0.03,0.00,VWS V14.01,2013-02-21 02:11:00,
2013-02-20 21:21:00,23.9,12.8,29.66,WNW,293,3.0,12.0,62,0.00,,CLR,0.03,0.00,VWS V14.01,2013-02-21 02:21:00,
2013-02-20 21:31:00,23.2,13.2,29.67,West,280,7.0,10.0,65,0.00,,CLR,0.03,0.00,VWS V14.01,2013-02-21 02:31:00,
2013-02-20 21:41:00,23.5,13.1,29.67,West,263,9.0,13.0,64,0.00,,FEW037,0.03,0.00,VWS V14.01,2013-02-21 02:41:00,
2013-02-20 21:51:00,23.2,13.2,29.67,West,278,6.0,15.0,65,0.00,,FEW037,0.03,0.00,VWS V14.01,2013-02-21 02:51:00,
2013-02-20 22:01:00,22.9,12.9,29.68,WSW,255,5.0,10.0,65,0.00,,FEW037,0.03,0.00,VWS V14.01,2013-02-21 03:01:00,
2013-02-20 22:11:00,22.4,12.8,29.68,WSW,258,3.0,10.0,66,0.00,,SCT035,0.03,0.00,VWS V14.01,2013-02-21 03:11:00,
2013-02-20 22:21:00,21.8,12.9,29.68,WSW,256,0.0,4.0,68,0.00,,SCT035,0.03,0.00,VWS V14.01,2013-02-21 03:21:00,
2013-02-20 22:31:00,21.4,12.8,29.68,WSW,256,0.0,0.0,69,0.00,,SCT035,0.03,0.00,VWS V14.01,2013-02-21 03:31:00,
2013-02-20 22:41:00,21.0,12.8,29.68,WSW,256,0.0,2.0,70,0.00,,BKN037,0.03,0.00,VWS V14.01,2013-02-21 03:41:00,
2013-02-20 22:51:00,20.6,13.0,29.68,WSW,255,3.0,3.0,72,0.00,,BKN037,0.03,0.00,VWS V14.01,2013-02-21 03:51:00,
2013-02-20 23:01:00,20.2,13.2,29.68,WSW,256,4.0,6.0,74,0.00,,BKN037,0.03,0.00,VWS V14.01,2013-02-21 04:01:00,
2013-02-20 23:11:00,20.0,13.1,29.68,WSW,247,4.0,7.0,74,0.00,,BKN035,0.03,0.00,VWS V14.01,2013-02-21 04:11:00,
2013-02-20 23:21:00,21.1,13.2,29.69,West,261,7.0,8.0,71,0.00,,BKN035,0.03,0.00,VWS V14.01,2013-02-21 04:21:00,
2013-02-20 23:31:00,21.8,13.5,29.69,West,264,4.0,9.0,70,0.00,,BKN035,0.03,0.00,VWS V14.01,2013-02-21 04:31:00,
2013-02-20 23:41:00,22.1,13.8,29.69,West,266,4.0,12.0,70,0.00,,FEW035,0.03,0.00,VWS V14.01,2013-02-21 04:41:00,
2013-02-20 23:51:00,21.8,13.5,29.69,SW,231,3.0,11.0,70,0.00,,FEW035,0.03,0.00,VWS V14.01,2013-02-21 04:51:00,